sensor_id;sensor_type;location;lat;lon;timestamp;P1;durP1;ratioP1;P2;durP2;ratioP2
43905;SDS011;29564;46.622;13.818;2022-10-31T00:00:49;4.60;;;1.63;;
43905;SDS011;29564;46.622;13.818;2022-10-31T00:02:11;2.42;;;1.90;;
43905;SDS011;29564;46.622;13.818;2022-10-31T00:03:33;3.55;;;1.83;;
43905;SDS011;29564;46.622;13.818;2022-10-31T00:04:54;1.95;;;1.30;;
43905;SDS011;29564;46.622;13.818;2022-10-31T00:06:16;4.13;;;1.83;;
43905;SDS011;29564;46.622;13.818;2022-10-31T00:07:40;5.22;;;1.90;;
43905;SDS011;29564;46.622;13.818;2022-10-31T00:09:03;4.05;;;1.45;;
43905;SDS011;29564;46.622;13.818;2022-10-31T00:10:25;6.78;;;1.55;;
43905;SDS011;29564;46.622;13.818;2022-10-31T00:11:47;2.88;;;1.40;;
43905;SDS011;29564;46.622;13.818;2022-10-31T00:13:09;5.90;;;1.60;;
43905;SDS011;29564;46.622;13.818;2022-10-31T00:14:31;8.18;;;1.83;;
43905;SDS011;29564;46.622;13.818;2022-10-31T00:15:53;1.40;;;1.25;;
43905;SDS011;29564;46.622;13.818;2022-10-31T00:17:16;2.10;;;1.23;;
43905;SDS011;29564;46.622;13.818;2022-10-31T00:18:38;1.55;;;1.30;;
43905;SDS011;29564;46.622;13.818;2022-10-31T00:20:00;3.95;;;1.15;;
43905;SDS011;29564;46.622;13.818;2022-10-31T00:21:21;2.22;;;1.45;;
43905;SDS011;29564;46.622;13.818;2022-10-31T00:22:43;4.13;;;1.20;;
43905;SDS011;29564;46.622;13.818;2022-10-31T00:24:05;2.58;;;1.40;;
43905;SDS011;29564;46.622;13.818;2022-10-31T00:25:27;2.30;;;1.58;;
43905;SDS011;29564;46.622;13.818;2022-10-31T00:26:49;3.45;;;1.00;;
43905;SDS011;29564;46.622;13.818;2022-10-31T00:28:11;2.38;;;1.45;;
43905;SDS011;29564;46.622;13.818;2022-10-31T00:29:32;4.55;;;2.03;;
43905;SDS011;29564;46.622;13.818;2022-10-31T00:30:54;1.48;;;1.38;;
43905;SDS011;29564;46.622;13.818;2022-10-31T00:32:22;4.00;;;1.08;;
43905;SDS011;29564;46.622;13.818;2022-10-31T00:33:44;3.83;;;1.55;;
43905;SDS011;29564;46.622;13.818;2022-10-31T00:35:05;3.03;;;1.58;;
43905;SDS011;29564;46.622;13.818;2022-10-31T00:36:27;3.42;;;1.92;;
43905;SDS011;29564;46.622;13.818;2022-10-31T00:37:49;2.22;;;1.35;;
43905;SDS011;29564;46.622;13.818;2022-10-31T00:39:12;7.00;;;2.35;;
43905;SDS011;29564;46.622;13.818;2022-10-31T00:40:34;3.33;;;1.10;;
43905;SDS011;29564;46.622;13.818;2022-10-31T00:41:56;4.78;;;1.40;;
43905;SDS011;29564;46.622;13.818;2022-10-31T00:43:17;2.25;;;1.35;;
43905;SDS011;29564;46.622;13.818;2022-10-31T00:44:39;2.25;;;1.88;;
43905;SDS011;29564;46.622;13.818;2022-10-31T00:46:01;6.63;;;1.40;;
43905;SDS011;29564;46.622;13.818;2022-10-31T00:47:22;3.05;;;1.75;;
43905;SDS011;29564;46.622;13.818;2022-10-31T00:48:44;2.83;;;1.48;;
43905;SDS011;29564;46.622;13.818;2022-10-31T00:50:06;2.90;;;2.33;;
43905;SDS011;29564;46.622;13.818;2022-10-31T00:51:28;1.80;;;1.10;;
43905;SDS011;29564;46.622;13.818;2022-10-31T00:52:56;4.80;;;2.03;;
43905;SDS011;29564;46.622;13.818;2022-10-31T00:54:18;1.23;;;1.13;;
43905;SDS011;29564;46.622;13.818;2022-10-31T00:55:40;2.53;;;1.40;;
43905;SDS011;29564;46.622;13.818;2022-10-31T00:57:01;3.85;;;0.70;;
43905;SDS011;29564;46.622;13.818;2022-10-31T00:58:23;3.75;;;1.13;;
43905;SDS011;29564;46.622;13.818;2022-10-31T00:59:44;2.88;;;1.38;;
43905;SDS011;29564;46.622;13.818;2022-10-31T01:01:06;3.72;;;1.70;;
43905;SDS011;29564;46.622;13.818;2022-10-31T01:02:27;1.92;;;1.33;;
43905;SDS011;29564;46.622;13.818;2022-10-31T01:03:49;1.92;;;1.65;;
43905;SDS011;29564;46.622;13.818;2022-10-31T01:05:11;3.42;;;1.55;;
43905;SDS011;29564;46.622;13.818;2022-10-31T01:06:32;1.67;;;1.42;;
43905;SDS011;29564;46.622;13.818;2022-10-31T01:07:54;3.03;;;1.48;;
43905;SDS011;29564;46.622;13.818;2022-10-31T01:09:15;5.68;;;1.88;;
43905;SDS011;29564;46.622;13.818;2022-10-31T01:10:37;3.05;;;2.20;;
43905;SDS011;29564;46.622;13.818;2022-10-31T01:11:58;1.70;;;1.23;;
43905;SDS011;29564;46.622;13.818;2022-10-31T01:13:20;2.33;;;0.98;;
43905;SDS011;29564;46.622;13.818;2022-10-31T01:14:44;7.28;;;1.92;;
43905;SDS011;29564;46.622;13.818;2022-10-31T01:16:06;2.92;;;2.35;;
43905;SDS011;29564;46.622;13.818;2022-10-31T01:17:30;1.55;;;1.10;;
43905;SDS011;29564;46.622;13.818;2022-10-31T01:18:52;3.20;;;1.58;;
43905;SDS011;29564;46.622;13.818;2022-10-31T01:20:14;3.05;;;1.52;;
43905;SDS011;29564;46.622;13.818;2022-10-31T01:21:36;2.65;;;1.55;;
43905;SDS011;29564;46.622;13.818;2022-10-31T01:22:58;7.63;;;1.95;;
43905;SDS011;29564;46.622;13.818;2022-10-31T01:24:19;1.80;;;1.38;;
43905;SDS011;29564;46.622;13.818;2022-10-31T01:25:40;3.72;;;1.27;;
43905;SDS011;29564;46.622;13.818;2022-10-31T01:27:03;6.15;;;1.80;;
43905;SDS011;29564;46.622;13.818;2022-10-31T01:28:24;7.47;;;1.77;;
43905;SDS011;29564;46.622;13.818;2022-10-31T01:29:46;1.35;;;1.25;;
43905;SDS011;29564;46.622;13.818;2022-10-31T01:31:08;7.93;;;1.45;;
43905;SDS011;29564;46.622;13.818;2022-10-31T01:32:29;3.03;;;1.65;;
43905;SDS011;29564;46.622;13.818;2022-10-31T01:33:51;2.70;;;1.15;;
43905;SDS011;29564;46.622;13.818;2022-10-31T01:35:12;4.47;;;1.55;;
43905;SDS011;29564;46.622;13.818;2022-10-31T01:36:35;2.03;;;0.88;;
43905;SDS011;29564;46.622;13.818;2022-10-31T01:39:18;2.42;;;1.17;;
43905;SDS011;29564;46.622;13.818;2022-10-31T01:40:40;0.77;;;0.77;;
43905;SDS011;29564;46.622;13.818;2022-10-31T01:42:02;3.05;;;1.33;;
43905;SDS011;29564;46.622;13.818;2022-10-31T01:43:23;4.20;;;1.00;;
43905;SDS011;29564;46.622;13.818;2022-10-31T01:44:54;2.30;;;1.30;;
43905;SDS011;29564;46.622;13.818;2022-10-31T01:46:25;6.93;;;1.17;;
43905;SDS011;29564;46.622;13.818;2022-10-31T01:47:53;2.40;;;1.70;;
43905;SDS011;29564;46.622;13.818;2022-10-31T01:49:17;1.75;;;1.05;;
43905;SDS011;29564;46.622;13.818;2022-10-31T01:50:58;1.90;;;1.40;;
43905;SDS011;29564;46.622;13.818;2022-10-31T01:53:50;3.05;;;1.38;;
43905;SDS011;29564;46.622;13.818;2022-10-31T01:58:13;2.40;;;1.25;;
43905;SDS011;29564;46.622;13.818;2022-10-31T01:59:39;1.83;;;1.65;;
43905;SDS011;29564;46.622;13.818;2022-10-31T02:03:21;4.47;;;1.60;;
43905;SDS011;29564;46.622;13.818;2022-10-31T02:04:44;1.90;;;1.70;;
43905;SDS011;29564;46.622;13.818;2022-10-31T02:06:08;4.45;;;1.50;;
43905;SDS011;29564;46.622;13.818;2022-10-31T02:07:38;2.28;;;1.45;;
43905;SDS011;29564;46.622;13.818;2022-10-31T02:09:04;1.60;;;1.50;;
43905;SDS011;29564;46.622;13.818;2022-10-31T02:10:27;6.93;;;1.55;;
43905;SDS011;29564;46.622;13.818;2022-10-31T02:13:35;2.08;;;1.42;;
43905;SDS011;29564;46.622;13.818;2022-10-31T02:14:58;4.55;;;1.33;;
43905;SDS011;29564;46.622;13.818;2022-10-31T02:20:25;7.93;;;1.60;;
43905;SDS011;29564;46.622;13.818;2022-10-31T02:34:29;7.63;;;1.35;;
43905;SDS011;29564;46.622;13.818;2022-10-31T02:36:01;4.28;;;1.25;;
43905;SDS011;29564;46.622;13.818;2022-10-31T02:37:31;4.13;;;1.83;;
43905;SDS011;29564;46.622;13.818;2022-10-31T02:39:16;1.85;;;1.35;;
43905;SDS011;29564;46.622;13.818;2022-10-31T02:40:58;3.67;;;1.58;;
43905;SDS011;29564;46.622;13.818;2022-10-31T02:42:25;2.75;;;1.15;;
43905;SDS011;29564;46.622;13.818;2022-10-31T02:47:25;3.63;;;1.85;;
43905;SDS011;29564;46.622;13.818;2022-10-31T02:48:49;1.23;;;1.13;;
43905;SDS011;29564;46.622;13.818;2022-10-31T02:50:15;1.42;;;1.33;;
43905;SDS011;29564;46.622;13.818;2022-10-31T02:51:40;7.13;;;1.77;;
43905;SDS011;29564;46.622;13.818;2022-10-31T02:53:02;4.07;;;1.13;;
43905;SDS011;29564;46.622;13.818;2022-10-31T02:54:24;2.17;;;1.17;;
43905;SDS011;29564;46.622;13.818;2022-10-31T02:57:35;3.30;;;1.38;;
43905;SDS011;29564;46.622;13.818;2022-10-31T02:59:01;2.08;;;1.42;;
43905;SDS011;29564;46.622;13.818;2022-10-31T03:00:24;4.40;;;1.25;;
43905;SDS011;29564;46.622;13.818;2022-10-31T03:02:20;1.42;;;1.10;;
43905;SDS011;29564;46.622;13.818;2022-10-31T03:04:04;3.53;;;1.42;;
43905;SDS011;29564;46.622;13.818;2022-10-31T03:14:00;4.35;;;1.52;;
43905;SDS011;29564;46.622;13.818;2022-10-31T03:15:43;5.10;;;1.77;;
43905;SDS011;29564;46.622;13.818;2022-10-31T03:17:05;2.60;;;1.60;;
43905;SDS011;29564;46.622;13.818;2022-10-31T03:18:37;3.75;;;1.50;;
43905;SDS011;29564;46.622;13.818;2022-10-31T03:20:39;1.60;;;1.50;;
43905;SDS011;29564;46.622;13.818;2022-10-31T03:22:21;3.85;;;1.75;;
43905;SDS011;29564;46.622;13.818;2022-10-31T03:23:46;6.55;;;2.30;;
43905;SDS011;29564;46.622;13.818;2022-10-31T03:25:10;1.20;;;1.10;;
43905;SDS011;29564;46.622;13.818;2022-10-31T03:26:38;1.48;;;1.13;;
43905;SDS011;29564;46.622;13.818;2022-10-31T03:28:08;3.05;;;1.35;;
43905;SDS011;29564;46.622;13.818;2022-10-31T03:29:34;3.63;;;1.20;;
43905;SDS011;29564;46.622;13.818;2022-10-31T03:30:58;0.70;;;0.70;;
43905;SDS011;29564;46.622;13.818;2022-10-31T03:32:27;1.27;;;1.08;;
43905;SDS011;29564;46.622;13.818;2022-10-31T03:33:53;1.67;;;1.02;;
43905;SDS011;29564;46.622;13.818;2022-10-31T03:35:18;1.55;;;1.30;;
43905;SDS011;29564;46.622;13.818;2022-10-31T03:36:43;5.32;;;1.40;;
43905;SDS011;29564;46.622;13.818;2022-10-31T03:38:06;7.70;;;1.23;;
43905;SDS011;29564;46.622;13.818;2022-10-31T03:39:29;2.95;;;1.38;;
43905;SDS011;29564;46.622;13.818;2022-10-31T03:40:51;4.13;;;1.55;;
43905;SDS011;29564;46.622;13.818;2022-10-31T03:42:16;1.88;;;1.02;;
43905;SDS011;29564;46.622;13.818;2022-10-31T03:43:43;3.47;;;1.58;;
43905;SDS011;29564;46.622;13.818;2022-10-31T03:45:14;3.92;;;1.75;;
43905;SDS011;29564;46.622;13.818;2022-10-31T03:46:39;5.40;;;2.13;;
43905;SDS011;29564;46.622;13.818;2022-10-31T03:48:01;1.42;;;1.15;;
43905;SDS011;29564;46.622;13.818;2022-10-31T03:49:23;1.20;;;1.10;;
43905;SDS011;29564;46.622;13.818;2022-10-31T03:55:34;2.65;;;1.40;;
43905;SDS011;29564;46.622;13.818;2022-10-31T03:57:07;1.95;;;1.17;;
43905;SDS011;29564;46.622;13.818;2022-10-31T03:58:33;4.45;;;1.48;;
43905;SDS011;29564;46.622;13.818;2022-10-31T04:00:03;1.98;;;1.30;;
43905;SDS011;29564;46.622;13.818;2022-10-31T04:01:26;1.33;;;0.93;;
43905;SDS011;29564;46.622;13.818;2022-10-31T04:02:53;2.95;;;1.38;;
43905;SDS011;29564;46.622;13.818;2022-10-31T04:04:16;8.38;;;1.67;;
43905;SDS011;29564;46.622;13.818;2022-10-31T04:05:39;4.82;;;1.23;;
43905;SDS011;29564;46.622;13.818;2022-10-31T04:07:03;2.40;;;1.08;;
43905;SDS011;29564;46.622;13.818;2022-10-31T04:08:28;2.92;;;1.73;;
43905;SDS011;29564;46.622;13.818;2022-10-31T04:09:52;6.03;;;1.13;;
43905;SDS011;29564;46.622;13.818;2022-10-31T04:11:14;2.78;;;1.38;;
43905;SDS011;29564;46.622;13.818;2022-10-31T04:12:39;1.65;;;1.38;;
43905;SDS011;29564;46.622;13.818;2022-10-31T04:14:02;2.70;;;1.77;;
43905;SDS011;29564;46.622;13.818;2022-10-31T04:15:26;5.05;;;3.22;;
43905;SDS011;29564;46.622;13.818;2022-10-31T04:16:49;3.13;;;1.90;;
43905;SDS011;29564;46.622;13.818;2022-10-31T04:18:10;5.13;;;1.80;;
43905;SDS011;29564;46.622;13.818;2022-10-31T04:19:32;5.15;;;3.15;;
43905;SDS011;29564;46.622;13.818;2022-10-31T04:21:01;7.07;;;2.22;;
43905;SDS011;29564;46.622;13.818;2022-10-31T04:22:24;5.82;;;2.72;;
43905;SDS011;29564;46.622;13.818;2022-10-31T04:23:46;7.32;;;3.08;;
43905;SDS011;29564;46.622;13.818;2022-10-31T04:25:07;3.92;;;2.50;;
43905;SDS011;29564;46.622;13.818;2022-10-31T04:26:29;8.02;;;3.60;;
43905;SDS011;29564;46.622;13.818;2022-10-31T04:27:50;5.43;;;2.05;;
43905;SDS011;29564;46.622;13.818;2022-10-31T04:29:12;8.43;;;1.95;;
43905;SDS011;29564;46.622;13.818;2022-10-31T04:30:33;3.38;;;2.10;;
43905;SDS011;29564;46.622;13.818;2022-10-31T04:31:55;3.80;;;2.00;;
43905;SDS011;29564;46.622;13.818;2022-10-31T04:33:16;3.60;;;1.80;;
43905;SDS011;29564;46.622;13.818;2022-10-31T04:34:38;7.05;;;1.95;;
43905;SDS011;29564;46.622;13.818;2022-10-31T04:35:59;7.28;;;3.15;;
43905;SDS011;29564;46.622;13.818;2022-10-31T04:37:21;4.80;;;1.80;;
43905;SDS011;29564;46.622;13.818;2022-10-31T04:38:42;2.60;;;1.80;;
43905;SDS011;29564;46.622;13.818;2022-10-31T04:40:04;2.95;;;1.98;;
43905;SDS011;29564;46.622;13.818;2022-10-31T04:41:26;2.50;;;1.77;;
43905;SDS011;29564;46.622;13.818;2022-10-31T04:42:47;3.45;;;1.90;;
43905;SDS011;29564;46.622;13.818;2022-10-31T04:44:09;4.25;;;1.30;;
43905;SDS011;29564;46.622;13.818;2022-10-31T04:45:30;4.35;;;1.73;;
43905;SDS011;29564;46.622;13.818;2022-10-31T04:46:51;6.30;;;2.38;;
43905;SDS011;29564;46.622;13.818;2022-10-31T04:48:13;3.28;;;1.70;;
43905;SDS011;29564;46.622;13.818;2022-10-31T04:49:34;3.65;;;2.25;;
43905;SDS011;29564;46.622;13.818;2022-10-31T04:50:59;4.05;;;1.75;;
43905;SDS011;29564;46.622;13.818;2022-10-31T04:52:21;3.67;;;2.15;;
43905;SDS011;29564;46.622;13.818;2022-10-31T04:53:43;4.03;;;1.80;;
43905;SDS011;29564;46.622;13.818;2022-10-31T04:55:04;1.90;;;1.55;;
43905;SDS011;29564;46.622;13.818;2022-10-31T04:56:26;2.03;;;1.40;;
43905;SDS011;29564;46.622;13.818;2022-10-31T04:57:48;4.18;;;1.25;;
43905;SDS011;29564;46.622;13.818;2022-10-31T05:00:32;3.10;;;2.33;;
43905;SDS011;29564;46.622;13.818;2022-10-31T05:01:54;2.08;;;1.85;;
43905;SDS011;29564;46.622;13.818;2022-10-31T05:03:15;5.47;;;1.60;;
43905;SDS011;29564;46.622;13.818;2022-10-31T05:04:36;3.25;;;1.90;;
43905;SDS011;29564;46.622;13.818;2022-10-31T05:05:58;2.50;;;1.88;;
43905;SDS011;29564;46.622;13.818;2022-10-31T05:07:19;5.20;;;2.55;;
43905;SDS011;29564;46.622;13.818;2022-10-31T05:08:41;2.78;;;1.80;;
43905;SDS011;29564;46.622;13.818;2022-10-31T05:10:02;5.43;;;2.10;;
43905;SDS011;29564;46.622;13.818;2022-10-31T05:11:24;8.82;;;1.98;;
43905;SDS011;29564;46.622;13.818;2022-10-31T05:12:46;7.93;;;2.15;;
43905;SDS011;29564;46.622;13.818;2022-10-31T05:14:12;6.95;;;2.53;;
43905;SDS011;29564;46.622;13.818;2022-10-31T05:15:33;6.15;;;3.67;;
43905;SDS011;29564;46.622;13.818;2022-10-31T05:16:55;16.02;;;2.45;;
43905;SDS011;29564;46.622;13.818;2022-10-31T05:18:16;4.95;;;3.55;;
43905;SDS011;29564;46.622;13.818;2022-10-31T05:19:38;4.38;;;2.22;;
43905;SDS011;29564;46.622;13.818;2022-10-31T05:20:59;6.75;;;3.05;;
43905;SDS011;29564;46.622;13.818;2022-10-31T05:22:20;8.63;;;3.80;;
43905;SDS011;29564;46.622;13.818;2022-10-31T05:23:42;6.53;;;2.72;;
43905;SDS011;29564;46.622;13.818;2022-10-31T05:25:03;6.95;;;3.05;;
43905;SDS011;29564;46.622;13.818;2022-10-31T05:26:25;8.52;;;2.72;;
43905;SDS011;29564;46.622;13.818;2022-10-31T05:27:47;7.93;;;3.28;;
43905;SDS011;29564;46.622;13.818;2022-10-31T05:29:10;11.98;;;3.13;;
43905;SDS011;29564;46.622;13.818;2022-10-31T05:30:32;4.70;;;2.63;;
43905;SDS011;29564;46.622;13.818;2022-10-31T05:31:54;10.23;;;3.78;;
43905;SDS011;29564;46.622;13.818;2022-10-31T05:33:15;7.82;;;3.97;;
43905;SDS011;29564;46.622;13.818;2022-10-31T05:34:37;8.38;;;3.47;;
43905;SDS011;29564;46.622;13.818;2022-10-31T05:35:58;5.93;;;3.00;;
43905;SDS011;29564;46.622;13.818;2022-10-31T05:37:20;8.27;;;3.50;;
43905;SDS011;29564;46.622;13.818;2022-10-31T05:38:41;8.45;;;4.25;;
43905;SDS011;29564;46.622;13.818;2022-10-31T05:40:03;5.18;;;3.33;;
43905;SDS011;29564;46.622;13.818;2022-10-31T05:41:25;4.18;;;3.13;;
43905;SDS011;29564;46.622;13.818;2022-10-31T05:42:47;7.97;;;3.63;;
43905;SDS011;29564;46.622;13.818;2022-10-31T05:44:11;6.80;;;3.08;;
43905;SDS011;29564;46.622;13.818;2022-10-31T05:45:33;9.30;;;3.38;;
43905;SDS011;29564;46.622;13.818;2022-10-31T05:46:54;9.35;;;2.78;;
43905;SDS011;29564;46.622;13.818;2022-10-31T05:48:16;5.55;;;2.20;;
43905;SDS011;29564;46.622;13.818;2022-10-31T05:49:37;13.15;;;3.67;;
43905;SDS011;29564;46.622;13.818;2022-10-31T05:50:58;8.50;;;2.70;;
43905;SDS011;29564;46.622;13.818;2022-10-31T05:52:20;4.35;;;2.33;;
43905;SDS011;29564;46.622;13.818;2022-10-31T05:53:41;5.78;;;2.50;;
43905;SDS011;29564;46.622;13.818;2022-10-31T05:56:14;3.10;;;2.30;;
43905;SDS011;29564;46.622;13.818;2022-10-31T05:57:35;2.60;;;1.85;;
43905;SDS011;29564;46.622;13.818;2022-10-31T05:58:56;4.25;;;3.38;;
43905;SDS011;29564;46.622;13.818;2022-10-31T06:00:18;7.63;;;2.85;;
43905;SDS011;29564;46.622;13.818;2022-10-31T06:03:28;4.88;;;1.73;;
43905;SDS011;29564;46.622;13.818;2022-10-31T06:04:49;7.85;;;3.38;;
43905;SDS011;29564;46.622;13.818;2022-10-31T06:06:11;2.38;;;1.95;;
43905;SDS011;29564;46.622;13.818;2022-10-31T06:07:33;4.50;;;2.00;;
43905;SDS011;29564;46.622;13.818;2022-10-31T06:10:36;6.95;;;2.08;;
43905;SDS011;29564;46.622;13.818;2022-10-31T06:11:58;9.32;;;2.47;;
43905;SDS011;29564;46.622;13.818;2022-10-31T06:13:19;5.70;;;2.42;;
43905;SDS011;29564;46.622;13.818;2022-10-31T06:14:41;4.38;;;2.55;;
43905;SDS011;29564;46.622;13.818;2022-10-31T06:16:02;4.88;;;2.40;;
43905;SDS011;29564;46.622;13.818;2022-10-31T06:17:24;3.42;;;1.70;;
43905;SDS011;29564;46.622;13.818;2022-10-31T06:18:45;5.68;;;2.10;;
43905;SDS011;29564;46.622;13.818;2022-10-31T06:20:08;3.17;;;2.17;;
43905;SDS011;29564;46.622;13.818;2022-10-31T06:21:29;3.13;;;1.95;;
43905;SDS011;29564;46.622;13.818;2022-10-31T06:22:51;4.18;;;1.40;;
43905;SDS011;29564;46.622;13.818;2022-10-31T06:24:12;8.65;;;1.90;;
43905;SDS011;29564;46.622;13.818;2022-10-31T06:25:35;3.78;;;2.25;;
43905;SDS011;29564;46.622;13.818;2022-10-31T06:26:57;6.63;;;2.55;;
43905;SDS011;29564;46.622;13.818;2022-10-31T06:28:18;4.88;;;2.25;;
43905;SDS011;29564;46.622;13.818;2022-10-31T06:29:39;9.45;;;2.15;;
43905;SDS011;29564;46.622;13.818;2022-10-31T06:31:01;5.20;;;2.50;;
43905;SDS011;29564;46.622;13.818;2022-10-31T06:32:22;5.40;;;2.33;;
43905;SDS011;29564;46.622;13.818;2022-10-31T06:33:44;4.28;;;2.20;;
43905;SDS011;29564;46.622;13.818;2022-10-31T06:35:05;8.15;;;2.72;;
43905;SDS011;29564;46.622;13.818;2022-10-31T06:36:27;7.93;;;2.33;;
43905;SDS011;29564;46.622;13.818;2022-10-31T06:37:52;10.85;;;3.05;;
43905;SDS011;29564;46.622;13.818;2022-10-31T06:39:14;7.82;;;2.47;;
43905;SDS011;29564;46.622;13.818;2022-10-31T06:40:35;7.07;;;2.50;;
43905;SDS011;29564;46.622;13.818;2022-10-31T06:41:57;5.70;;;3.08;;
43905;SDS011;29564;46.622;13.818;2022-10-31T06:43:19;6.55;;;3.83;;
43905;SDS011;29564;46.622;13.818;2022-10-31T06:44:43;5.25;;;2.35;;
43905;SDS011;29564;46.622;13.818;2022-10-31T06:46:05;8.23;;;2.60;;
43905;SDS011;29564;46.622;13.818;2022-10-31T06:47:26;10.85;;;3.90;;
43905;SDS011;29564;46.622;13.818;2022-10-31T06:48:48;6.90;;;2.60;;
43905;SDS011;29564;46.622;13.818;2022-10-31T06:52:05;7.00;;;3.08;;
43905;SDS011;29564;46.622;13.818;2022-10-31T06:53:26;5.47;;;2.97;;
43905;SDS011;29564;46.622;13.818;2022-10-31T06:54:50;6.95;;;3.35;;
43905;SDS011;29564;46.622;13.818;2022-10-31T06:56:11;8.15;;;3.53;;
43905;SDS011;29564;46.622;13.818;2022-10-31T06:57:33;6.80;;;3.15;;
43905;SDS011;29564;46.622;13.818;2022-10-31T06:58:54;8.63;;;3.45;;
43905;SDS011;29564;46.622;13.818;2022-10-31T07:00:16;14.23;;;3.15;;
43905;SDS011;29564;46.622;13.818;2022-10-31T07:01:37;9.18;;;2.95;;
43905;SDS011;29564;46.622;13.818;2022-10-31T07:03:05;4.80;;;2.83;;
43905;SDS011;29564;46.622;13.818;2022-10-31T07:04:30;7.43;;;3.88;;
43905;SDS011;29564;46.622;13.818;2022-10-31T07:05:54;4.18;;;2.30;;
43905;SDS011;29564;46.622;13.818;2022-10-31T07:07:16;7.97;;;1.85;;
43905;SDS011;29564;46.622;13.818;2022-10-31T07:08:38;9.75;;;3.38;;
43905;SDS011;29564;46.622;13.818;2022-10-31T07:09:59;5.30;;;1.83;;
43905;SDS011;29564;46.622;13.818;2022-10-31T07:11:20;3.58;;;2.03;;
43905;SDS011;29564;46.622;13.818;2022-10-31T07:12:42;6.47;;;2.85;;
43905;SDS011;29564;46.622;13.818;2022-10-31T07:14:03;11.02;;;4.43;;
43905;SDS011;29564;46.622;13.818;2022-10-31T07:15:25;9.63;;;4.07;;
43905;SDS011;29564;46.622;13.818;2022-10-31T07:16:49;12.32;;;4.40;;
43905;SDS011;29564;46.622;13.818;2022-10-31T07:18:11;19.77;;;7.47;;
43905;SDS011;29564;46.622;13.818;2022-10-31T07:19:33;28.65;;;10.05;;
43905;SDS011;29564;46.622;13.818;2022-10-31T07:20:55;29.70;;;11.18;;
43905;SDS011;29564;46.622;13.818;2022-10-31T07:22:16;21.58;;;8.60;;
43905;SDS011;29564;46.622;13.818;2022-10-31T07:23:38;24.85;;;7.68;;
43905;SDS011;29564;46.622;13.818;2022-10-31T07:24:59;42.22;;;9.70;;
43905;SDS011;29564;46.622;13.818;2022-10-31T07:26:20;20.85;;;8.77;;
43905;SDS011;29564;46.622;13.818;2022-10-31T07:27:42;20.70;;;7.28;;
43905;SDS011;29564;46.622;13.818;2022-10-31T07:29:04;16.92;;;6.85;;
43905;SDS011;29564;46.622;13.818;2022-10-31T07:30:25;11.75;;;4.72;;
43905;SDS011;29564;46.622;13.818;2022-10-31T07:31:47;10.55;;;4.57;;
43905;SDS011;29564;46.622;13.818;2022-10-31T07:33:08;9.02;;;3.70;;
43905;SDS011;29564;46.622;13.818;2022-10-31T07:34:29;10.15;;;4.25;;
43905;SDS011;29564;46.622;13.818;2022-10-31T07:35:51;7.82;;;3.97;;
43905;SDS011;29564;46.622;13.818;2022-10-31T07:37:13;13.43;;;2.78;;
43905;SDS011;29564;46.622;13.818;2022-10-31T07:38:34;8.40;;;3.25;;
43905;SDS011;29564;46.622;13.818;2022-10-31T07:39:55;9.38;;;2.80;;
43905;SDS011;29564;46.622;13.818;2022-10-31T07:41:17;11.48;;;2.90;;
43905;SDS011;29564;46.622;13.818;2022-10-31T07:42:44;9.15;;;2.63;;
43905;SDS011;29564;46.622;13.818;2022-10-31T07:44:08;6.03;;;2.50;;
43905;SDS011;29564;46.622;13.818;2022-10-31T07:45:29;6.05;;;2.17;;
43905;SDS011;29564;46.622;13.818;2022-10-31T07:46:51;5.47;;;3.03;;
43905;SDS011;29564;46.622;13.818;2022-10-31T07:48:12;6.88;;;3.35;;
43905;SDS011;29564;46.622;13.818;2022-10-31T07:49:33;4.38;;;2.55;;
43905;SDS011;29564;46.622;13.818;2022-10-31T07:50:55;5.18;;;2.15;;
43905;SDS011;29564;46.622;13.818;2022-10-31T07:52:16;2.97;;;1.65;;
43905;SDS011;29564;46.622;13.818;2022-10-31T07:53:38;2.30;;;1.83;;
43905;SDS011;29564;46.622;13.818;2022-10-31T07:54:59;7.88;;;2.38;;
43905;SDS011;29564;46.622;13.818;2022-10-31T07:56:21;3.53;;;1.70;;
43905;SDS011;29564;46.622;13.818;2022-10-31T07:57:42;5.85;;;1.85;;
43905;SDS011;29564;46.622;13.818;2022-10-31T07:59:03;3.97;;;1.45;;
43905;SDS011;29564;46.622;13.818;2022-10-31T08:00:25;4.30;;;2.03;;
43905;SDS011;29564;46.622;13.818;2022-10-31T08:01:46;3.38;;;2.00;;
43905;SDS011;29564;46.622;13.818;2022-10-31T08:03:09;8.10;;;2.15;;
43905;SDS011;29564;46.622;13.818;2022-10-31T08:04:32;6.38;;;2.10;;
43905;SDS011;29564;46.622;13.818;2022-10-31T08:05:53;4.32;;;2.40;;
43905;SDS011;29564;46.622;13.818;2022-10-31T08:07:14;3.00;;;1.67;;
43905;SDS011;29564;46.622;13.818;2022-10-31T08:08:36;5.03;;;1.73;;
43905;SDS011;29564;46.622;13.818;2022-10-31T08:09:58;7.78;;;1.80;;
43905;SDS011;29564;46.622;13.818;2022-10-31T08:11:19;10.68;;;3.15;;
43905;SDS011;29564;46.622;13.818;2022-10-31T08:12:41;4.05;;;2.00;;
43905;SDS011;29564;46.622;13.818;2022-10-31T08:14:02;7.70;;;3.17;;
43905;SDS011;29564;46.622;13.818;2022-10-31T08:15:24;3.33;;;1.75;;
43905;SDS011;29564;46.622;13.818;2022-10-31T08:16:46;5.13;;;2.05;;
43905;SDS011;29564;46.622;13.818;2022-10-31T08:18:11;8.00;;;2.10;;
43905;SDS011;29564;46.622;13.818;2022-10-31T08:19:33;3.17;;;2.25;;
43905;SDS011;29564;46.622;13.818;2022-10-31T08:20:55;4.72;;;2.67;;
43905;SDS011;29564;46.622;13.818;2022-10-31T08:22:16;3.28;;;2.22;;
43905;SDS011;29564;46.622;13.818;2022-10-31T08:23:38;3.15;;;2.33;;
43905;SDS011;29564;46.622;13.818;2022-10-31T08:24:59;5.28;;;2.20;;
43905;SDS011;29564;46.622;13.818;2022-10-31T08:26:21;8.38;;;3.95;;
43905;SDS011;29564;46.622;13.818;2022-10-31T08:27:42;4.63;;;2.30;;
43905;SDS011;29564;46.622;13.818;2022-10-31T08:29:03;4.40;;;1.88;;
43905;SDS011;29564;46.622;13.818;2022-10-31T08:30:26;6.43;;;1.85;;
43905;SDS011;29564;46.622;13.818;2022-10-31T08:31:49;3.63;;;1.95;;
43905;SDS011;29564;46.622;13.818;2022-10-31T08:33:11;7.65;;;1.98;;
43905;SDS011;29564;46.622;13.818;2022-10-31T08:34:35;8.60;;;2.20;;
43905;SDS011;29564;46.622;13.818;2022-10-31T08:35:57;5.45;;;2.45;;
43905;SDS011;29564;46.622;13.818;2022-10-31T08:37:19;3.35;;;2.08;;
43905;SDS011;29564;46.622;13.818;2022-10-31T08:38:40;7.85;;;2.53;;
43905;SDS011;29564;46.622;13.818;2022-10-31T08:40:02;5.53;;;2.25;;
43905;SDS011;29564;46.622;13.818;2022-10-31T08:41:24;4.75;;;2.25;;
43905;SDS011;29564;46.622;13.818;2022-10-31T08:42:45;6.35;;;2.80;;
43905;SDS011;29564;46.622;13.818;2022-10-31T08:44:06;8.50;;;2.33;;
43905;SDS011;29564;46.622;13.818;2022-10-31T08:45:28;3.65;;;1.65;;
43905;SDS011;29564;46.622;13.818;2022-10-31T08:46:51;7.05;;;2.08;;
43905;SDS011;29564;46.622;13.818;2022-10-31T08:48:13;2.70;;;1.80;;
43905;SDS011;29564;46.622;13.818;2022-10-31T08:49:35;2.42;;;1.75;;
43905;SDS011;29564;46.622;13.818;2022-10-31T08:50:57;5.95;;;2.38;;
43905;SDS011;29564;46.622;13.818;2022-10-31T08:52:22;4.00;;;1.90;;
43905;SDS011;29564;46.622;13.818;2022-10-31T08:53:45;8.68;;;2.03;;
43905;SDS011;29564;46.622;13.818;2022-10-31T08:55:06;6.40;;;1.92;;
43905;SDS011;29564;46.622;13.818;2022-10-31T08:56:28;6.53;;;1.85;;
43905;SDS011;29564;46.622;13.818;2022-10-31T08:57:53;2.65;;;1.88;;
43905;SDS011;29564;46.622;13.818;2022-10-31T08:59:16;2.67;;;2.45;;
43905;SDS011;29564;46.622;13.818;2022-10-31T09:00:37;3.58;;;2.17;;
43905;SDS011;29564;46.622;13.818;2022-10-31T09:01:59;7.28;;;2.45;;
43905;SDS011;29564;46.622;13.818;2022-10-31T09:03:22;6.95;;;1.63;;
43905;SDS011;29564;46.622;13.818;2022-10-31T09:04:45;6.35;;;1.70;;
43905;SDS011;29564;46.622;13.818;2022-10-31T09:06:07;8.63;;;2.17;;